Latest Weather Observations for Tarcoola

IDS60801

Issued at 11:35 pm CDT Thursday 30 October 2014 (issued every 30 minutes, with the page automatically refreshed every 10 minutes)

About weather observations | Map of weather stations | Latest weather observations for SA | Other Formats
Station Details ID: 016098 Name: TARCOOLA AERO Lat: -30.71 Lon: 134.58 Height: 123.0 m
Data from the previous 72 hours. | See also: Recent months at Tarcoola
Date/Time
CDT
Temp
°C
App
Temp
°C
Dew
Point
Rel
Hum
%
Delta-T
°C
Wind Press
QNH
hPa
Press
MSL
hPa
Rain
since 9 am
mm
Dir
 
Spd
km/h
Gust
km/h
Spd
kts
Gust
kts
30/11:30pm 30.6 25.0 -3.2 11 15.4 N 17 24 9 13 1008.9 1008.6 0.0
30/11:00pm 28.8 24.3 -3.4 12 14.5 N 11 13 6 7 1008.9 1008.6 0.0
30/10:30pm 28.2 23.2 -3.9 12 14.2 NE 13 15 7 8 1008.9 1008.6 0.0
30/10:00pm 29.1 24.6 -3.2 12 14.6 NNE 11 13 6 7 1009.5 1009.2 0.0
30/09:30pm 29.6 25.4 -3.9 11 15.0 NE 9 9 5 5 1009.5 1009.2 0.0
30/09:00pm 30.3 27.9 -3.4 11 15.3 CALM 0 0 0 0 1009.3 1009.0 0.0
30/08:30pm 30.7 28.3 -3.1 11 15.5 CALM 0 6 0 3 1009.0 1008.7 0.0
30/08:00pm 31.6 27.4 -3.7 10 16.1 NNE 9 9 5 5 1008.8 1008.5 0.0
30/07:30pm 33.1 28.9 -4.0 9 17.1 N 9 13 5 7 1008.6 1008.3 0.0
30/07:00pm 34.6 29.4 -2.9 9 17.7 N 15 20 8 11 1008.5 1008.2 0.0
30/06:30pm 34.7 28.7 -2.8 9 17.8 N 19 28 10 15 1008.7 1008.4 0.0
30/06:00pm 34.9 28.8 -2.6 9 17.9 NNW 20 28 11 15 1008.9 1008.6 0.0
30/05:30pm 34.7 31.0 -2.8 9 17.8 N 7 17 4 9 1009.0 1008.7 0.0
30/05:00pm 34.7 30.6 -2.8 9 17.8 WNW 9 15 5 8 1009.3 1009.0 0.0
30/04:30pm 34.5 29.7 -2.9 9 17.7 N 13 22 7 12 1009.6 1009.3 0.0
30/04:00pm 34.6 30.5 -2.9 9 17.7 N 9 20 5 11 1010.1 1009.8 0.0
30/03:30pm 35.2 29.1 -2.4 9 18.0 N 20 33 11 18 1010.5 1010.2 0.0
30/03:00pm 36.3 31.4 -3.2 8 18.8 NW 13 24 7 13 1010.9 1010.6 0.0
30/02:30pm 35.2 30.6 -1.0 10 17.7 NNE 13 19 7 10 1011.4 1011.1 0.0
30/02:00pm 35.0 31.2 -1.1 10 17.6 NE 9 22 5 12 1012.1 1011.7 0.0
30/01:30pm 34.0 29.3 -1.9 10 17.2 NNW 13 20 7 11 1012.7 1012.3 0.0
30/01:00pm 33.7 29.1 -0.8 11 16.8 NNE 13 24 7 13 1013.2 1012.8 0.0
30/12:30pm 33.1 29.0 -0.1 12 16.2 NE 11 22 6 12 1013.7 1013.3 0.0
30/12:00pm 32.2 27.8 0.3 13 15.6 E 13 22 7 12 1014.2 1013.8 0.0
30/11:30am 31.5 26.6 -0.2 13 15.3 ENE 15 20 8 11 1014.7 1014.3 0.0
30/11:00am 31.1 26.6 2.3 16 14.5 E 15 24 8 13 1015.1 1014.7 0.0
30/10:30am 29.9 25.4 2.2 17 13.8 E 15 24 8 13 1015.2 1014.8 0.0
30/10:00am 28.8 23.7 2.9 19 13.0 ESE 19 24 10 13 1015.3 1014.9 0.0
30/09:30am 27.6 22.5 3.3 21 12.2 E 19 24 10 13 1015.3 1014.9 0.0
30/09:00am 26.0 20.9 3.3 23 11.2 E 19 24 10 13 1015.5 1015.2 0.0
30/08:30am 24.5 19.8 3.2 25 10.4 ESE 17 24 9 13 1015.5 1015.2 0.0
30/08:00am 22.7 19.5 2.8 27 9.5 SE 9 15 5 8 1015.4 1015.0 0.0
30/07:30am 19.2 16.3 1.7 31 8.0 S 6 9 3 5 1015.5 1015.2 0.0
30/07:00am 15.5 12.3 -0.7 33 6.8 S 6 7 3 4 1015.5 1015.2 0.0
30/06:30am 15.8 12.4 -0.4 33 6.9 SSW 7 7 4 4 1015.2 1014.8 0.0
30/06:00am 17.0 15.0 0.2 32 7.3 SW 0 0 0 0 1014.9 1014.5 0.0
30/05:30am 17.7 14.4 -0.1 30 7.7 SW 7 9 4 5 1014.8 1014.4 0.0
30/05:00am 19.4 16.1 0.4 28 8.5 SW 7 9 4 5 1014.7 1014.3 0.0
30/04:30am 20.9 18.6 0.7 26 9.2 S 2 7 1 4 1014.8 1014.4 0.0
30/04:00am 21.5 18.3 0.7 25 9.5 SW 7 9 4 5 1014.8 1014.4 0.0
30/03:30am 22.5 20.7 0.9 24 10.0 CALM 0 6 0 3 1014.6 1014.2 0.0
30/03:00am 22.8 19.2 0.6 23 10.2 S 9 13 5 7 1014.9 1014.5 0.0
30/02:30am 22.9 18.9 0.7 23 10.2 S 11 13 6 7 1015.1 1014.7 0.0
30/02:00am 22.4 18.8 0.3 23 10.1 SSW 9 13 5 7 1015.4 1015.0 0.0
30/01:30am 22.7 19.1 0.5 23 10.2 SW 9 13 5 7 1015.6 1015.3 0.0
30/01:00am 22.9 19.6 0.1 22 10.4 SW 7 9 4 5 1015.6 1015.3 0.0
30/12:30am 23.9 20.3 0.3 21 10.9 SSW 9 13 5 7 1015.7 1015.4 0.0
30/12:00am 24.7 20.7 0.3 20 11.3 S 11 13 6 7 1015.9 1015.6 0.0
 
Date/Time
CDT
Temp
°C
App
Temp
°C
Dew
Point
Rel
Hum
%
Delta-T
°C
Wind Press
QNH
hPa
Press
MSL
hPa
Rain
since 9 am
mm
Dir
 
Spd
km/h
Gust
km/h
Spd
kts
Gust
kts
29/11:30pm 25.7 21.2 -0.4 18 12.0 S 13 17 7 9 1015.8 1015.5 0.0
29/11:00pm 26.2 20.9 -0.8 17 12.4 SSE 17 24 9 13 1015.8 1015.5 0.0
29/10:30pm 21.6 18.0 -7.0 14 11.2 ENE 4 24 2 13 1015.7 1015.4 0.0
29/10:00pm 21.9 18.7 -6.8 14 11.3 ENE 2 9 1 5 1015.5 1015.2 0.0
29/09:30pm 22.7 19.9 -7.1 13 11.8 CALM 0 0 0 0 1015.5 1015.2 0.0
29/09:00pm 24.8 22.0 -6.5 12 12.8 CALM 0 0 0 0 1015.4 1015.0 0.0
29/08:30pm 26.2 23.6 -5.4 12 13.4 CALM 0 0 0 0 1015.4 1015.0 0.0
29/08:00pm 27.7 25.1 -5.4 11 14.2 CALM 0 0 0 0 1015.2 1014.8 0.0
29/07:30pm 30.6 28.0 -4.5 10 15.6 CALM 0 0 0 0 1014.9 1014.5 0.0
29/07:00pm 32.0 29.2 -3.4 10 16.3 SE 2 9 1 5 1014.7 1014.3 0.0
29/06:30pm 32.2 27.7 -3.2 10 16.3 SSW 11 20 6 11 1014.6 1014.2 0.0
29/06:00pm 32.4 27.9 -3.1 10 16.4 SSE 11 17 6 9 1014.6 1014.2 0.0
29/05:30pm 31.7 27.2 -3.6 10 16.1 S 11 15 6 8 1014.5 1014.1 0.0
29/05:00pm 31.8 28.0 -3.5 10 16.2 W 7 15 4 8 1014.7 1014.3 0.0
29/04:30pm 31.7 28.5 -3.6 10 16.1 ESE 4 13 2 7 1015.0 1014.6 0.0
29/04:00pm 31.8 27.3 -3.5 10 16.2 SSW 11 17 6 9 1015.2 1014.8 0.0
29/03:30pm 31.4 27.6 -3.8 10 16.0 WSW 7 11 4 6 1015.5 1015.2 0.0
29/03:00pm 32.0 27.5 -3.4 10 16.3 NNE 11 17 6 9 1015.8 1015.5 0.0
29/02:30pm 32.1 28.1 -2.0 11 16.0 W 9 17 5 9 1016.2 1015.9 0.0
29/02:00pm 31.9 27.9 -2.2 11 16.0 NW 9 26 5 14 1016.7 1016.4 0.0
29/01:30pm 31.5 27.1 -2.5 11 15.8 N 11 20 6 11 1017.1 1016.8 0.0
29/01:00pm 31.2 27.3 -1.5 12 15.4 NNW 9 20 5 11 1017.6 1017.3 0.0
29/12:30pm 31.3 27.9 -0.4 13 15.2 N 7 19 4 10 1018.1 1017.8 0.0
29/12:00pm 30.1 25.6 -0.3 14 14.5 ENE 13 24 7 13 1018.4 1018.1 0.0
29/11:30am 29.2 24.9 0.8 16 13.7 N 13 20 7 11 1018.8 1018.5 0.0
29/11:00am 27.5 23.5 2.6 20 12.3 NE 13 20 7 11 1019.3 1019.0 0.0
29/10:30am 26.4 22.2 3.6 23 11.4 NE 15 24 8 13 1019.3 1019.0 0.0
29/10:00am 25.1 20.7 4.8 27 10.3 NE 17 22 9 12 1019.5 1019.2 0.0
29/09:30am 23.0 18.7 5.4 32 8.9 ENE 17 20 9 11 1019.7 1019.4 0.0
29/09:00am 21.8 17.6 5.7 35 8.1 ENE 17 20 9 11 1019.6 1019.3 0.0
29/08:30am 20.2 15.8 6.5 41 6.9 E 19 28 10 15 1019.6 1019.3 0.0
29/08:00am 18.8 14.9 6.9 46 6.0 E 17 22 9 12 1019.2 1018.9 0.0
29/07:30am 16.4 15.0 7.3 55 4.5 E 4 9 2 5 1019.2 1018.9 0.0
29/07:00am 11.3 10.0 4.3 62 3.2 CALM 0 0 0 0 1019.3 1019.0 0.0
29/06:30am 11.3 8.9 4.3 62 3.2 NE 6 7 3 4 1018.9 1018.6 0.0
29/06:00am 11.4 10.2 4.6 63 3.1 CALM 0 0 0 0 1018.6 1018.3 0.0
29/05:30am 11.6 10.5 5.0 64 3.0 CALM 0 0 0 0 1018.4 1018.1 0.0
29/05:00am 12.2 9.1 5.6 64 3.1 WSW 11 13 6 7 1018.6 1018.3 0.0
29/04:30am 13.3 10.3 5.9 61 3.5 WSW 11 13 6 7 1018.6 1018.3 0.0
29/04:00am 13.2 10.5 5.4 59 3.7 WSW 9 11 5 6 1018.5 1018.2 0.0
29/03:30am 13.7 11.0 5.6 58 3.8 WSW 9 11 5 6 1018.6 1018.3 0.0
29/03:00am 13.9 11.4 4.8 54 4.2 SW 7 9 4 5 1018.7 1018.4 0.0
29/02:30am 14.8 11.5 4.8 51 4.7 SSW 11 11 6 6 1018.8 1018.5 0.0
29/02:00am 15.8 13.0 5.1 49 5.1 SW 9 11 5 6 1019.0 1018.7 0.0
29/01:30am 16.3 13.4 4.7 46 5.5 SSW 9 11 5 6 1019.4 1019.1 0.0
29/01:00am 17.4 14.1 4.4 42 6.2 SSW 11 13 6 7 1019.5 1019.2 0.0
29/12:30am 19.0 16.1 2.8 34 7.5 S 7 13 4 7 1019.4 1019.1 0.0
29/12:00am 20.5 17.0 3.3 32 8.2 SSE 11 13 6 7 1019.3 1019.0 0.0
 
Date/Time
CDT
Temp
°C
App
Temp
°C
Dew
Point
Rel
Hum
%
Delta-T
°C
Wind Press
QNH
hPa
Press
MSL
hPa
Rain
since 9 am
mm
Dir
 
Spd
km/h
Gust
km/h
Spd
kts
Gust
kts
28/11:30pm 21.3 17.3 2.6 29 8.8 SSE 13 17 7 9 1019.2 1018.9 0.0
28/11:00pm 22.4 18.3 2.0 26 9.6 SSE 13 22 7 12 1019.4 1019.1 0.0
28/10:30pm 21.4 17.5 -1.2 22 9.9 E 9 11 5 6 1019.3 1019.0 0.0
28/10:00pm 21.8 17.5 -1.5 21 10.2 ESE 11 15 6 8 1019.1 1018.8 0.0
28/09:30pm 22.1 18.5 -1.9 20 10.4 S 7 9 4 5 1019.0 1018.7 0.0
28/09:00pm 23.8 19.9 -1.2 19 11.2 S 9 11 5 6 1018.6 1018.3 0.0
28/08:30pm 24.8 20.8 -1.9 17 11.9 SSW 9 11 5 6 1018.4 1018.1 0.0
28/08:00pm 26.1 22.2 -1.7 16 12.6 SSW 9 13 5 7 1018.2 1017.9 0.0
28/07:30pm 27.7 23.7 -2.2 14 13.5 SSW 9 13 5 7 1018.0 1017.7 0.0
28/07:00pm 28.4 25.1 -1.6 14 13.8 S 6 13 3 7 1017.9 1017.6 0.0
28/06:30pm 28.6 24.3 -1.5 14 13.9 SSW 11 19 6 10 1017.8 1017.5 0.0
28/06:00pm 29.4 25.4 -1.9 13 14.4 W 9 17 5 9 1017.8 1017.5 0.0
28/05:30pm 28.8 25.3 -1.3 14 14.0 NE 7 11 4 6 1017.9 1017.6 0.0
28/05:00pm 29.4 25.6 -0.9 14 14.3 W 9 19 5 10 1018.1 1017.8 0.0
28/04:30pm 28.1 24.7 -0.9 15 13.5 WNW 7 11 4 6 1018.4 1018.1 0.0
28/04:00pm 27.7 23.6 -0.4 16 13.2 SE 11 19 6 10 1018.8 1018.5 0.0
28/03:30pm 27.4 24.1 0.2 17 12.8 N 7 13 4 7 1019.2 1018.9 0.0
28/03:00pm 26.9 23.7 0.6 18 12.4 N 7 19 4 10 1019.5 1019.2 0.0
28/02:30pm 26.0 23.0 0.6 19 11.9 N 6 15 3 8 1019.9 1019.6 0.0
28/02:00pm 25.5 22.2 2.2 22 11.3 ENE 9 20 5 11 1020.7 1020.3 0.0
28/01:30pm 23.9 20.4 1.5 23 10.5 W 9 17 5 9 1021.0 1020.6 0.0
28/01:00pm 23.4 20.1 2.3 25 10.1 ESE 9 17 5 9 1021.4 1021.0 0.0
28/12:30pm 22.6 18.6 2.7 27 9.5 ESE 13 22 7 12 1021.6 1021.2 0.0
28/12:00pm 21.4 18.2 3.1 30 8.7 S 9 17 5 9 1021.9 1021.5 0.0
28/11:30am 20.6 16.9 4.2 34 7.9 E 13 20 7 11 1022.2 1021.8 0.0
28/11:00am 19.9 16.7 5.2 38 7.2 E 11 19 6 10 1022.6 1022.3 0.0
28/10:30am 18.1 14.9 5.3 43 6.2 ESE 11 17 6 9 1022.7 1022.4 0.0
28/10:00am 17.9 14.9 6.1 46 5.8 ESE 11 17 6 9 1023.0 1022.7 0.0
28/09:30am 16.9 13.6 6.4 50 5.2 ESE 13 17 7 9 1023.1 1022.8 0.0
28/09:00am 16.1 12.2 7.3 56 4.4 SE 17 24 9 13 1023.0 1022.7 0.0
28/08:30am 14.7 10.8 7.3 61 3.6 ESE 17 24 9 13 1022.7 1022.4 0.0
28/08:00am 13.7 11.3 7.0 64 3.3 ESE 9 15 5 8 1022.7 1022.4 0.0
28/07:30am 10.7 9.7 5.7 71 2.3 CALM 0 0 0 0 1022.5 1022.2 0.0
28/07:00am 8.1 5.5 3.4 72 2.0 SSE 6 7 3 4 1022.0 1021.6 0.0
28/06:30am 8.9 6.4 4.7 75 1.9 S 7 9 4 5 1021.6 1021.2 0.0
28/06:00am 9.9 7.1 5.3 73 2.1 S 9 11 5 6 1021.4 1021.0 0.0
28/05:30am 10.9 7.5 5.9 71 2.3 S 13 17 7 9 1021.2 1020.8 0.0
28/05:00am 10.6 7.9 5.6 71 2.3 S 9 13 5 7 1020.9 1020.5 0.0
28/04:30am 11.0 7.5 5.5 69 2.5 SSW 13 15 7 8 1020.9 1020.5 0.0
28/04:00am 11.3 7.4 5.4 67 2.7 SSW 15 20 8 11 1020.6 1020.2 0.0
28/03:30am 11.2 6.8 4.9 65 2.9 SSW 17 20 9 11 1020.8 1020.4 0.0
28/03:00am 11.2 7.2 4.7 64 3.0 SW 15 17 8 9 1021.0 1020.6 0.0
28/02:30am 11.9 7.8 4.4 60 3.4 SW 15 17 8 9 1021.2 1020.8 0.0
28/02:00am 12.6 8.5 4.6 58 3.7 SSW 15 17 8 9 1021.3 1020.9 0.0
28/01:30am 13.4 9.3 4.6 55 4.1 SSW 15 20 8 11 1021.5 1021.1 0.0
28/01:00am 14.0 9.6 4.6 53 4.4 SSW 17 20 9 11 1021.8 1021.4 0.0
28/12:30am 14.7 10.3 4.7 51 4.7 SSW 17 22 9 12 1022.0 1021.6 0.0
28/12:00am 15.3 10.9 4.9 50 4.9 SSW 17 20 9 11 1022.0 1021.6 0.0

Other Formats:

Comma delimited format used in spreadsheet applications
http://www.bom.gov.au/fwo/IDS60801/IDS60801.94655.axf

JavaScript Object Notation format (JSON) in row-major order
http://www.bom.gov.au/fwo/IDS60801/IDS60801.94655.json